createdAt,value
2023-02-11T00:01:57.378Z,79.88
2023-02-11T00:04:25.539Z,79.94
2023-02-11T00:06:52.467Z,80.01
2023-02-11T00:09:19.149Z,80.00
2023-02-11T00:11:46.076Z,79.92
2023-02-11T00:14:14.132Z,79.98
2023-02-11T00:16:44.013Z,79.95
2023-02-11T00:19:10.852Z,80.03
2023-02-11T00:21:37.728Z,79.82
2023-02-11T00:24:04.826Z,79.90
2023-02-11T00:26:33.434Z,79.86
2023-02-11T00:29:02.373Z,79.84
2023-02-11T00:31:33.678Z,79.99
2023-02-11T00:34:01.645Z,79.71
2023-02-11T00:36:29.838Z,79.82
2023-02-11T00:39:00.170Z,79.75
2023-02-11T00:41:27.221Z,79.82
2023-02-11T00:43:54.169Z,80.00
2023-02-11T00:46:21.930Z,79.91
2023-02-11T00:48:51.789Z,79.91
2023-02-11T00:51:18.928Z,80.02
2023-02-11T00:53:45.631Z,79.84
2023-02-11T00:56:12.461Z,79.67
2023-02-11T00:58:39.285Z,79.80
2023-02-11T01:01:06.284Z,79.77
2023-02-11T01:03:33.374Z,79.76
2023-02-11T01:06:02.232Z,79.57
2023-02-11T01:08:29.195Z,79.65
2023-02-11T01:10:57.607Z,79.83
2023-02-11T01:13:25.864Z,79.82
2023-02-11T01:15:53.266Z,79.58
2023-02-11T01:18:20.643Z,79.54
2023-02-11T01:20:47.462Z,79.85
2023-02-11T01:23:15.639Z,79.70
2023-02-11T01:25:42.440Z,79.87
2023-02-11T01:28:16.866Z,79.62
2023-02-11T01:30:43.854Z,79.69
2023-02-11T01:33:10.912Z,79.76
2023-02-11T01:35:38.712Z,79.88
2023-02-11T01:38:06.794Z,79.77
2023-02-11T01:40:35.076Z,79.95
2023-02-11T01:43:02.704Z,79.89
2023-02-11T01:46:08.112Z,79.81
2023-02-11T01:48:38.833Z,79.97
2023-02-11T01:51:09.246Z,79.91
2023-02-11T01:53:56.313Z,80.03
2023-02-11T01:56:44.737Z,79.66
2023-02-11T01:59:16.769Z,79.66
2023-02-11T02:01:48.858Z,80.02
2023-02-11T02:04:18.074Z,79.86
2023-02-11T02:06:50.746Z,79.87
2023-02-11T02:09:22.798Z,79.76
2023-02-11T02:11:51.771Z,79.65
2023-02-11T02:14:19.052Z,79.60
2023-02-11T02:16:46.182Z,79.64
2023-02-11T02:19:56.075Z,79.73
2023-02-11T02:22:55.670Z,79.76
2023-02-11T02:25:47.525Z,79.81
2023-02-11T02:28:37.062Z,79.89
2023-02-11T02:31:28.185Z,79.93
2023-02-11T02:34:02.132Z,79.85
2023-02-11T02:36:37.147Z,80.03
2023-02-11T02:39:10.719Z,79.86
2023-02-11T02:41:39.507Z,79.89
2023-02-11T02:44:08.355Z,79.86
2023-02-11T02:46:36.570Z,79.99
2023-02-11T02:49:07.367Z,80.03
2023-02-11T02:52:00.149Z,80.22
2023-02-11T02:54:44.928Z,79.83
2023-02-11T02:57:27.432Z,80.09
2023-02-11T03:00:08.460Z,80.01
2023-02-11T03:02:41.582Z,79.95
2023-02-11T03:05:16.367Z,80.16
2023-02-11T03:07:48.505Z,80.12
2023-02-11T03:10:19.712Z,79.96
2023-02-11T03:12:50.446Z,79.87
2023-02-11T03:15:19.503Z,79.82
2023-02-11T03:17:49.767Z,80.05
2023-02-11T03:20:20.428Z,80.11
2023-02-11T03:22:50.808Z,80.22
2023-02-11T03:25:18.201Z,80.32
2023-02-11T03:27:52.638Z,80.28
2023-02-11T03:30:26.789Z,80.03
2023-02-11T03:33:00.245Z,80.55
2023-02-11T03:35:33.092Z,80.21
2023-02-11T03:38:02.710Z,80.45
2023-02-11T03:40:32.650Z,80.14
2023-02-11T03:43:02.873Z,80.23
2023-02-11T03:45:30.631Z,80.24
2023-02-11T03:48:01.049Z,80.57
2023-02-11T03:50:32.646Z,80.33
2023-02-11T03:53:02.374Z,80.46
2023-02-11T03:55:30.873Z,80.62
2023-02-11T03:57:57.652Z,80.59
2023-02-11T04:00:30.680Z,80.51
2023-02-11T04:02:57.553Z,80.44
2023-02-11T04:05:24.471Z,80.59
2023-02-11T04:07:52.690Z,80.48
2023-02-11T04:10:19.881Z,80.49
2023-02-11T04:12:46.809Z,80.62
2023-02-11T04:15:13.485Z,80.58
2023-02-11T04:17:40.339Z,80.63
2023-02-11T04:20:08.015Z,80.55
2023-02-11T04:22:34.778Z,80.68
2023-02-11T04:25:03.094Z,80.63
2023-02-11T04:27:30.035Z,80.60
2023-02-11T04:29:56.792Z,80.72
2023-02-11T04:32:23.625Z,80.81
2023-02-11T04:34:50.581Z,80.65
2023-02-11T04:37:17.429Z,80.88
2023-02-11T04:39:44.163Z,80.66
2023-02-11T04:42:12.367Z,80.61
2023-02-11T04:44:39.170Z,80.78
2023-02-11T04:47:05.993Z,80.77
2023-02-11T04:49:32.756Z,80.63
2023-02-11T04:51:59.600Z,80.75
2023-02-11T04:54:26.428Z,80.62
2023-02-11T04:56:53.174Z,80.68
2023-02-11T04:59:21.264Z,80.79
2023-02-11T05:01:48.068Z,80.72
2023-02-11T05:04:14.876Z,80.86
2023-02-11T05:06:41.836Z,80.81
2023-02-11T05:09:10.390Z,80.91
2023-02-11T05:11:39.325Z,80.78
2023-02-11T05:14:06.749Z,80.90
2023-02-11T05:16:35.768Z,80.99
2023-02-11T05:19:02.542Z,81.01
2023-02-11T05:21:29.297Z,81.12
2023-02-11T05:23:57.177Z,80.90
2023-02-11T05:26:23.904Z,81.11
2023-02-11T05:28:50.671Z,81.25
2023-02-11T05:31:17.590Z,81.15
2023-02-11T05:33:45.784Z,80.93
2023-02-11T05:36:13.693Z,80.81
2023-02-11T05:38:40.732Z,81.15
2023-02-11T05:41:07.598Z,81.06
2023-02-11T05:43:37.479Z,80.86
2023-02-11T05:46:04.924Z,80.86
2023-02-11T05:48:32.030Z,81.00
2023-02-11T05:51:00.093Z,81.07
2023-02-11T05:53:27.024Z,81.01
2023-02-11T05:55:53.792Z,80.88
2023-02-11T05:58:20.725Z,80.84
2023-02-11T06:00:47.510Z,81.04
2023-02-11T06:03:16.613Z,81.06
2023-02-11T06:05:43.568Z,81.08
2023-02-11T06:08:12.343Z,80.84
2023-02-11T06:10:39.436Z,81.21
2023-02-11T06:13:06.243Z,80.95
2023-02-11T06:15:33.099Z,81.05
2023-02-11T06:17:59.950Z,81.02
2023-02-11T06:20:26.764Z,81.12
2023-02-11T06:22:53.949Z,81.07
2023-02-11T06:25:22.251Z,81.38
2023-02-11T06:27:49.151Z,81.26
2023-02-11T06:30:16.059Z,81.03
2023-02-11T06:32:45.997Z,81.15
2023-02-11T06:35:13.579Z,81.02
2023-02-11T06:37:40.868Z,81.35
2023-02-11T06:40:08.631Z,81.26
2023-02-11T06:42:39.154Z,81.38
2023-02-11T06:45:09.044Z,81.33
2023-02-11T06:47:36.132Z,81.52
2023-02-11T06:50:03.646Z,81.18
2023-02-11T06:52:30.476Z,81.18
2023-02-11T06:54:57.323Z,81.15
2023-02-11T06:57:24.156Z,81.41
2023-02-11T06:59:54.393Z,81.49
2023-02-11T07:02:21.475Z,81.50
2023-02-11T07:04:48.355Z,81.40
2023-02-11T07:07:15.306Z,81.21
2023-02-11T07:09:42.291Z,81.34
2023-02-11T07:12:12.185Z,81.10
2023-02-11T07:14:39.510Z,81.21
2023-02-11T07:17:07.686Z,81.10
2023-02-11T07:19:34.592Z,81.31
2023-02-11T07:22:01.488Z,81.63
2023-02-11T07:24:28.281Z,81.29
2023-02-11T07:26:55.263Z,81.71
2023-02-11T07:29:22.143Z,81.75
2023-02-11T07:31:49.213Z,81.78
2023-02-11T07:34:17.475Z,81.55
2023-02-11T07:36:45.116Z,81.94
2023-02-11T07:39:12.061Z,81.62
2023-02-11T07:41:39.191Z,81.63
2023-02-11T07:44:06.355Z,81.77
2023-02-11T07:46:34.671Z,81.77
2023-02-11T07:49:01.672Z,81.68
2023-02-11T07:51:31.449Z,81.63
2023-02-11T07:54:00.260Z,81.60
2023-02-11T07:56:28.174Z,81.50
2023-02-11T07:59:01.355Z,81.69
2023-02-11T08:01:31.440Z,81.98
2023-02-11T08:03:59.599Z,81.72
2023-02-11T08:06:30.133Z,81.65
2023-02-11T08:08:57.133Z,81.91
2023-02-11T08:11:26.922Z,81.84
2023-02-11T08:13:55.122Z,81.97
2023-02-11T08:16:25.094Z,81.89
2023-02-11T08:18:53.185Z,82.17
2023-02-11T08:21:20.593Z,81.73
2023-02-11T08:23:49.801Z,81.64
2023-02-11T08:26:19.344Z,81.85
2023-02-11T08:28:48.192Z,81.70
2023-02-11T08:31:17.748Z,82.00
2023-02-11T08:33:45.341Z,81.96
2023-02-11T08:36:14.421Z,81.80
2023-02-11T08:38:41.590Z,81.96
2023-02-11T08:41:10.065Z,82.12
2023-02-11T08:43:41.718Z,82.00
2023-02-11T08:46:09.392Z,82.11
2023-02-11T08:48:36.334Z,81.97
2023-02-11T08:51:06.708Z,82.26
2023-02-11T08:53:33.709Z,82.17
2023-02-11T08:56:00.625Z,82.07
2023-02-11T08:58:28.972Z,81.98
2023-02-11T09:00:55.867Z,82.00
2023-02-11T09:03:22.684Z,82.52
2023-02-11T09:05:53.122Z,82.38
2023-02-11T09:08:21.115Z,82.39
2023-02-11T09:10:48.119Z,82.32
2023-02-11T09:13:15.016Z,82.34
2023-02-11T09:15:45.254Z,82.50
2023-02-11T09:18:12.414Z,82.32
2023-02-11T09:20:39.199Z,82.66
2023-02-11T09:23:05.971Z,82.46
2023-02-11T09:25:32.735Z,82.49
2023-02-11T09:27:59.753Z,82.61
2023-02-11T09:30:26.740Z,82.43
2023-02-11T09:32:54.969Z,82.67
2023-02-11T09:35:21.742Z,82.34
2023-02-11T09:37:48.672Z,82.46
2023-02-11T09:40:16.361Z,82.94
2023-02-11T09:42:51.074Z,82.54
2023-02-11T09:45:20.681Z,82.55
2023-02-11T09:47:51.384Z,82.58
2023-02-11T09:50:24.444Z,82.30
2023-02-11T09:52:56.918Z,82.63
2023-02-11T09:55:26.732Z,82.55
2023-02-11T09:57:53.785Z,82.35
2023-02-11T10:00:24.234Z,82.61
2023-02-11T10:03:05.137Z,82.35
2023-02-11T10:05:53.710Z,82.31
2023-02-11T10:08:31.833Z,82.38
2023-02-11T10:11:03.357Z,82.62
2023-02-11T10:13:43.994Z,82.20
2023-02-11T10:16:22.009Z,82.53
2023-02-11T10:19:11.308Z,82.55
2023-02-11T10:21:47.831Z,82.50
2023-02-11T10:24:16.363Z,82.84
2023-02-11T10:26:44.601Z,82.58
2023-02-11T10:29:21.359Z,82.24
2023-02-11T10:31:50.898Z,82.55
2023-02-11T10:34:17.743Z,82.50
2023-02-11T10:36:46.360Z,82.58
2023-02-11T10:39:15.856Z,82.59
2023-02-11T10:41:46.172Z,82.84
2023-02-11T10:44:27.657Z,82.39
2023-02-11T10:46:56.443Z,82.53
2023-02-11T10:49:39.411Z,82.38
2023-02-11T10:52:18.309Z,82.47
2023-02-11T10:54:57.395Z,82.26
2023-02-11T10:57:28.116Z,82.60
2023-02-11T10:59:59.796Z,82.62
2023-02-11T11:02:32.211Z,82.42
2023-02-11T11:05:00.940Z,82.28
2023-02-11T11:07:31.168Z,82.45
2023-02-11T11:10:02.454Z,82.03
2023-02-11T11:12:35.232Z,82.13
2023-02-11T11:15:13.587Z,82.34
2023-02-11T11:17:40.462Z,82.13
2023-02-11T11:20:22.466Z,82.15
2023-02-11T11:22:52.577Z,82.30
2023-02-11T11:25:24.786Z,82.08
2023-02-11T11:27:54.163Z,82.17
2023-02-11T11:30:23.499Z,82.25
2023-02-11T11:32:50.444Z,81.97
2023-02-11T11:35:27.058Z,81.94
2023-02-11T11:38:01.402Z,82.26
2023-02-11T11:40:30.361Z,82.20
2023-02-11T11:43:06.734Z,81.81
2023-02-11T11:45:33.560Z,81.82
2023-02-11T11:48:07.102Z,81.85
2023-02-11T11:50:37.040Z,81.86
2023-02-11T11:53:13.951Z,81.90
2023-02-11T11:55:45.002Z,82.06
2023-02-11T11:58:16.593Z,81.78
2023-02-11T12:00:54.780Z,81.74
2023-02-11T12:04:02.821Z,81.88
2023-02-11T12:06:42.679Z,81.97
2023-02-11T12:09:23.519Z,81.63
2023-02-11T12:12:14.104Z,81.56
2023-02-11T12:14:49.561Z,81.74
2023-02-11T12:17:33.977Z,81.57
2023-02-11T12:20:18.233Z,81.37
2023-02-11T12:22:59.073Z,81.32
2023-02-11T12:25:30.168Z,81.44
2023-02-11T12:28:16.227Z,81.50
2023-02-11T12:30:56.803Z,81.16
2023-02-11T12:33:45.423Z,81.43
2023-02-11T12:36:21.197Z,81.03
2023-02-11T12:39:03.043Z,81.18
2023-02-11T12:42:15.122Z,81.07
2023-02-11T12:44:58.361Z,81.07
2023-02-11T12:47:32.667Z,81.26
2023-02-11T12:50:18.147Z,80.92
2023-02-11T12:53:08.332Z,80.86
2023-02-11T12:55:38.687Z,80.87
2023-02-11T12:58:15.073Z,81.07
2023-02-11T13:00:49.593Z,80.95
2023-02-11T13:03:22.901Z,80.96
2023-02-11T13:05:53.074Z,80.59
2023-02-11T13:08:25.015Z,80.69
2023-02-11T13:10:58.392Z,80.88
2023-02-11T13:13:31.387Z,80.62
2023-02-11T13:16:06.960Z,80.68
2023-02-11T13:18:49.659Z,80.32
2023-02-11T13:21:30.634Z,80.40
2023-02-11T13:24:10.226Z,80.64
2023-02-11T13:26:45.885Z,80.41
2023-02-11T13:29:36.462Z,80.43
2023-02-11T13:32:08.519Z,80.44
2023-02-11T13:34:58.998Z,80.13
2023-02-11T13:37:29.360Z,80.37
2023-02-11T13:39:58.722Z,80.40
2023-02-11T13:42:26.211Z,80.43
2023-02-11T13:44:56.452Z,80.37
2023-02-11T13:47:32.129Z,80.32
2023-02-11T13:50:02.797Z,80.42
2023-02-11T13:52:32.465Z,80.35
2023-02-11T13:55:05.901Z,80.04
2023-02-11T13:57:35.942Z,80.47
2023-02-11T14:00:41.896Z,80.12
2023-02-11T14:03:42.656Z,80.13
2023-02-11T14:06:35.700Z,80.33
2023-02-11T14:09:27.675Z,80.35
2023-02-11T14:12:32.270Z,80.29
2023-02-11T14:15:03.806Z,80.39
2023-02-11T14:17:34.560Z,80.09
2023-02-11T14:20:04.676Z,80.40
2023-02-11T14:22:44.556Z,80.29
2023-02-11T14:25:22.037Z,80.22
2023-02-11T14:27:56.805Z,80.55
2023-02-11T14:30:52.815Z,80.23
2023-02-11T14:33:47.773Z,80.21
2023-02-11T14:36:30.862Z,80.26
2023-02-11T14:39:07.165Z,80.15
2023-02-11T14:41:41.069Z,80.18
2023-02-11T14:44:15.171Z,80.10
2023-02-11T14:46:45.502Z,80.01
2023-02-11T14:49:21.679Z,80.20
2023-02-11T14:51:48.643Z,79.90
2023-02-11T14:54:22.709Z,79.91
2023-02-11T14:57:06.275Z,79.92
2023-02-11T14:59:35.169Z,79.92
2023-02-11T15:02:02.257Z,80.05
2023-02-11T15:04:35.516Z,80.30
2023-02-11T15:07:07.062Z,79.96
2023-02-11T15:09:40.795Z,80.29
2023-02-11T15:12:18.669Z,79.98
2023-02-11T15:14:48.215Z,80.27
2023-02-11T15:17:19.541Z,79.99
2023-02-11T15:19:50.962Z,80.24
2023-02-11T15:22:22.020Z,80.27
2023-02-11T15:24:59.758Z,79.88
2023-02-11T15:27:26.992Z,80.15
2023-02-11T15:29:53.832Z,80.16
2023-02-11T15:32:23.718Z,79.84
2023-02-11T15:34:54.049Z,79.66
2023-02-11T15:37:23.236Z,79.81
2023-02-11T15:39:51.125Z,79.69
2023-02-11T15:42:20.389Z,79.90
2023-02-11T15:44:54.298Z,79.66
2023-02-11T15:47:30.254Z,79.72
2023-02-11T15:49:58.837Z,79.75
2023-02-11T15:52:28.013Z,79.69
2023-02-11T15:54:59.492Z,79.81
2023-02-11T15:57:26.695Z,79.42
2023-02-11T15:59:54.919Z,79.55
2023-02-11T16:02:28.546Z,79.80
2023-02-11T16:04:58.872Z,79.91
2023-02-11T16:07:44.326Z,79.86
2023-02-11T16:10:23.719Z,80.00
2023-02-11T16:13:15.735Z,79.59
2023-02-11T16:15:46.521Z,79.87
2023-02-11T16:18:28.538Z,79.71
2023-02-11T16:21:07.258Z,79.98
2023-02-11T16:23:38.905Z,79.64
2023-02-11T16:26:17.359Z,79.83
2023-02-11T16:28:44.314Z,79.82
2023-02-11T16:31:11.495Z,80.03
2023-02-11T16:33:38.380Z,79.63
2023-02-11T16:36:11.994Z,80.07
2023-02-11T16:38:38.852Z,79.93
2023-02-11T16:41:05.744Z,79.62
2023-02-11T16:43:32.576Z,79.93
2023-02-11T16:45:59.406Z,79.93
2023-02-11T16:48:26.383Z,79.82
2023-02-11T16:50:53.744Z,79.77
2023-02-11T16:53:25.236Z,79.75
2023-02-11T16:55:53.081Z,79.67
2023-02-11T16:58:20.148Z,79.63
2023-02-11T17:00:48.371Z,80.06
2023-02-11T17:03:20.531Z,80.02
2023-02-11T17:05:55.330Z,79.75
2023-02-11T17:08:24.190Z,79.86
2023-02-11T17:10:51.181Z,79.54
2023-02-11T17:13:18.200Z,79.63
2023-02-11T17:15:44.966Z,80.19
2023-02-11T17:18:13.808Z,79.90
2023-02-11T17:20:40.800Z,80.08
2023-02-11T17:23:07.793Z,79.91
2023-02-11T17:25:42.000Z,79.80
2023-02-11T17:28:12.150Z,79.79
2023-02-11T17:30:41.359Z,80.18
2023-02-11T17:33:08.235Z,80.18
2023-02-11T17:35:34.973Z,79.87
2023-02-11T17:38:01.732Z,79.87
2023-02-11T17:40:28.640Z,80.01
2023-02-11T17:42:56.894Z,80.22
2023-02-11T17:45:23.681Z,80.11
2023-02-11T17:47:50.826Z,80.12
2023-02-11T17:50:17.927Z,80.10
2023-02-11T17:52:44.980Z,79.86
2023-02-11T17:55:11.951Z,80.33
2023-02-11T17:57:39.284Z,80.36
2023-02-11T18:00:09.684Z,79.85
2023-02-11T18:02:36.570Z,80.08
2023-02-11T18:05:03.626Z,80.27
2023-02-11T18:07:30.578Z,80.11
2023-02-11T18:09:57.338Z,80.23
2023-02-11T18:12:26.923Z,80.12
2023-02-11T18:14:58.012Z,80.14
2023-02-11T18:17:26.761Z,80.29
2023-02-11T18:19:55.901Z,80.46
2023-02-11T18:22:22.995Z,80.17
2023-02-11T18:24:51.810Z,80.44
2023-02-11T18:27:18.552Z,80.35
2023-02-11T18:29:45.318Z,80.49
2023-02-11T18:32:12.763Z,80.29
2023-02-11T18:34:41.664Z,80.52
2023-02-11T18:37:08.587Z,80.38
2023-02-11T18:39:35.393Z,80.72
2023-02-11T18:42:02.344Z,80.46
2023-02-11T18:44:29.255Z,80.60
2023-02-11T18:46:59.005Z,80.66
2023-02-11T18:49:25.692Z,80.62
2023-02-11T18:51:53.993Z,80.72
2023-02-11T18:54:22.912Z,80.67
2023-02-11T18:56:49.801Z,80.69
2023-02-11T18:59:16.613Z,80.55
2023-02-11T19:01:46.862Z,80.59
2023-02-11T19:04:21.761Z,80.53
2023-02-11T19:06:49.981Z,80.69
2023-02-11T19:09:20.585Z,80.65
2023-02-11T19:11:47.653Z,80.71
2023-02-11T19:14:15.971Z,80.71
2023-02-11T19:16:44.576Z,80.73
2023-02-11T19:19:11.753Z,80.83
2023-02-11T19:21:38.596Z,80.76
2023-02-11T19:24:07.728Z,80.68
2023-02-11T19:26:36.759Z,80.61
2023-02-11T19:29:04.620Z,80.84
2023-02-11T19:31:32.359Z,80.98
2023-02-11T19:33:59.312Z,80.73
2023-02-11T19:36:26.121Z,80.82
2023-02-11T19:38:53.059Z,80.78
2023-02-11T19:41:22.234Z,80.62
2023-02-11T19:43:53.837Z,80.64
2023-02-11T19:46:23.871Z,80.92
2023-02-11T19:48:51.154Z,80.83
2023-02-11T19:51:18.181Z,80.74
2023-02-11T19:53:45.794Z,80.90
2023-02-11T19:56:13.877Z,80.82
2023-02-11T19:58:41.928Z,80.82
2023-02-11T20:01:12.602Z,80.75
2023-02-11T20:03:42.161Z,80.92
2023-02-11T20:06:13.097Z,80.74
2023-02-11T20:08:40.342Z,80.88
2023-02-11T20:11:08.591Z,80.92
2023-02-11T20:13:35.459Z,81.01
2023-02-11T20:16:07.265Z,80.76
2023-02-11T20:18:38.292Z,80.71
2023-02-11T20:21:08.624Z,80.89
2023-02-11T20:23:35.830Z,80.71
2023-02-11T20:26:06.933Z,80.53
2023-02-11T20:28:33.629Z,80.75
2023-02-11T20:31:00.937Z,80.85
2023-02-11T20:33:29.964Z,80.82
2023-02-11T20:35:59.483Z,81.27
2023-02-11T20:38:26.887Z,81.07
2023-02-11T20:40:54.120Z,80.87
2023-02-11T20:43:22.031Z,81.34
2023-02-11T20:45:49.591Z,80.88
2023-02-11T20:48:16.724Z,81.01
2023-02-11T20:50:43.475Z,81.06
2023-02-11T20:53:11.759Z,81.04
2023-02-11T20:55:39.247Z,81.11
2023-02-11T20:58:07.188Z,81.06
2023-02-11T21:00:36.135Z,81.04
2023-02-11T21:03:03.617Z,80.97
2023-02-11T21:05:31.169Z,80.94
2023-02-11T21:08:00.719Z,81.12
2023-02-11T21:10:28.878Z,80.95
2023-02-11T21:12:55.761Z,80.93
2023-02-11T21:15:24.167Z,81.13
2023-02-11T21:17:51.381Z,81.01
2023-02-11T21:20:18.555Z,80.95
2023-02-11T21:22:45.460Z,81.25
2023-02-11T21:25:12.346Z,81.18
2023-02-11T21:27:40.593Z,81.13
2023-02-11T21:30:08.587Z,80.96
2023-02-11T21:32:35.982Z,81.11
2023-02-11T21:35:03.321Z,81.01
2023-02-11T21:37:30.241Z,80.96
2023-02-11T21:39:56.941Z,81.00
2023-02-11T21:42:23.783Z,81.10
2023-02-11T21:44:51.956Z,80.91
2023-02-11T21:47:18.751Z,81.20
2023-02-11T21:49:45.521Z,80.69
2023-02-11T21:52:12.465Z,81.37
2023-02-11T21:54:39.246Z,81.17
2023-02-11T21:57:06.081Z,80.85
2023-02-11T21:59:32.918Z,81.08
2023-02-11T22:02:01.074Z,80.86
2023-02-11T22:04:27.795Z,81.02
2023-02-11T22:06:54.703Z,81.04
2023-02-11T22:09:21.519Z,81.37
2023-02-11T22:11:49.326Z,80.96
2023-02-11T22:14:16.841Z,81.27
2023-02-11T22:16:45.475Z,81.14
2023-02-11T22:19:14.298Z,80.82
2023-02-11T22:21:43.188Z,81.11
2023-02-11T22:24:09.866Z,80.87
2023-02-11T22:26:37.394Z,80.99
2023-02-11T22:29:04.343Z,81.41
2023-02-11T22:31:36.602Z,81.15
2023-02-11T22:34:04.349Z,81.29
2023-02-11T22:36:37.723Z,81.25
2023-02-11T22:39:06.931Z,81.08
2023-02-11T22:41:34.180Z,81.17
2023-02-11T22:44:01.194Z,81.29
2023-02-11T22:46:28.191Z,81.23
2023-02-11T22:48:55.048Z,81.33
2023-02-11T22:51:24.557Z,81.24
2023-02-11T22:53:55.105Z,81.02
2023-02-11T22:56:22.380Z,81.20
2023-02-11T22:58:49.750Z,81.00
2023-02-11T23:01:17.585Z,81.21
2023-02-11T23:03:44.445Z,81.26
2023-02-11T23:06:12.801Z,81.26
2023-02-11T23:08:41.003Z,81.01
2023-02-11T23:11:11.499Z,80.99
2023-02-11T23:13:40.441Z,81.04
2023-02-11T23:16:12.977Z,81.05
2023-02-11T23:18:41.899Z,81.30
2023-02-11T23:21:12.788Z,81.03
2023-02-11T23:23:40.316Z,81.22
2023-02-11T23:26:12.619Z,81.14
2023-02-11T23:28:40.147Z,81.22
2023-02-11T23:31:15.910Z,81.05
2023-02-11T23:33:43.222Z,81.17
2023-02-11T23:36:10.727Z,81.44
2023-02-11T23:38:37.878Z,81.28
2023-02-11T23:41:05.319Z,81.12
2023-02-11T23:43:36.211Z,81.40
2023-02-11T23:46:03.691Z,81.35
2023-02-11T23:48:30.721Z,81.45
2023-02-11T23:50:57.704Z,81.03
2023-02-11T23:53:24.731Z,81.45
2023-02-11T23:55:51.474Z,81.25
2023-02-11T23:58:18.510Z,81.41
